sensor_id;sensor_type;location;lat;lon;timestamp;pressure;altitude;pressure_sealevel;temperature;humidity
20009;BME280;10165;42.662;23.260;2023-03-26T00:01:13;93660.16;;;10.99;62.95
20009;BME280;10165;42.662;23.260;2023-03-26T00:03:42;93666.31;;;11.03;63.27
20009;BME280;10165;42.662;23.260;2023-03-26T00:06:14;93664.03;;;11.54;61.78
20009;BME280;10165;42.662;23.260;2023-03-26T00:08:43;93670.09;;;10.79;64.19
20009;BME280;10165;42.662;23.260;2023-03-26T00:11:11;93669.91;;;11.37;62.31
20009;BME280;10165;42.662;23.260;2023-03-26T00:13:38;93661.34;;;11.54;61.66
20009;BME280;10165;42.662;23.260;2023-03-26T00:16:07;93661.47;;;11.61;61.11
20009;BME280;10165;42.662;23.260;2023-03-26T00:18:33;93651.38;;;11.77;60.97
20009;BME280;10165;42.662;23.260;2023-03-26T00:21:02;93644.31;;;12.22;59.43
20009;BME280;10165;42.662;23.260;2023-03-26T00:23:31;93641.09;;;11.79;59.62
20009;BME280;10165;42.662;23.260;2023-03-26T00:25:59;93624.44;;;11.93;60.44
20009;BME280;10165;42.662;23.260;2023-03-26T00:28:28;93627.50;;;11.65;60.68
20009;BME280;10165;42.662;23.260;2023-03-26T00:31:03;93617.22;;;11.67;60.29
20009;BME280;10165;42.662;23.260;2023-03-26T00:33:30;93615.09;;;12.10;59.57
20009;BME280;10165;42.662;23.260;2023-03-26T00:35:58;93611.28;;;12.48;58.29
20009;BME280;10165;42.662;23.260;2023-03-26T00:38:30;93610.06;;;12.78;57.43
20009;BME280;10165;42.662;23.260;2023-03-26T00:40:59;93610.94;;;12.49;57.97
20009;BME280;10165;42.662;23.260;2023-03-26T00:43:35;93620.78;;;12.78;57.12
20009;BME280;10165;42.662;23.260;2023-03-26T00:46:02;93623.06;;;12.39;57.63
20009;BME280;10165;42.662;23.260;2023-03-26T00:48:29;93624.59;;;12.77;56.79
20009;BME280;10165;42.662;23.260;2023-03-26T00:51:10;93620.53;;;12.54;56.56
20009;BME280;10165;42.662;23.260;2023-03-26T00:53:37;93629.56;;;12.75;56.16
20009;BME280;10165;42.662;23.260;2023-03-26T00:56:07;93620.19;;;12.99;55.63
20009;BME280;10165;42.662;23.260;2023-03-26T00:58:34;93626.97;;;12.86;55.46
20009;BME280;10165;42.662;23.260;2023-03-26T01:01:03;93636.94;;;12.89;55.19
20009;BME280;10165;42.662;23.260;2023-03-26T01:03:33;93630.16;;;12.58;55.67
20009;BME280;10165;42.662;23.260;2023-03-26T01:08:44;93633.13;;;11.83;58.02
20009;BME280;10165;42.662;23.260;2023-03-26T01:11:24;93638.88;;;11.85;58.24
20009;BME280;10165;42.662;23.260;2023-03-26T01:13:58;93635.09;;;11.89;58.32
20009;BME280;10165;42.662;23.260;2023-03-26T01:16:36;93627.78;;;11.83;58.79
20009;BME280;10165;42.662;23.260;2023-03-26T01:19:10;93634.63;;;11.28;60.80
20009;BME280;10165;42.662;23.260;2023-03-26T01:21:38;93632.88;;;11.39;60.82
20009;BME280;10165;42.662;23.260;2023-03-26T01:24:08;93627.56;;;11.16;61.94
20009;BME280;10165;42.662;23.260;2023-03-26T01:29:31;93646.03;;;11.51;61.09
20009;BME280;10165;42.662;23.260;2023-03-26T01:35:32;93632.66;;;11.51;61.02
20009;BME280;10165;42.662;23.260;2023-03-26T01:38:09;93633.97;;;11.90;60.58
20009;BME280;10165;42.662;23.260;2023-03-26T01:40:50;93643.34;;;11.51;61.18
20009;BME280;10165;42.662;23.260;2023-03-26T01:45:56;93643.47;;;12.14;59.84
20009;BME280;10165;42.662;23.260;2023-03-26T01:48:45;93635.66;;;12.35;58.97
20009;BME280;10165;42.662;23.260;2023-03-26T01:51:23;93655.25;;;12.80;57.88
20009;BME280;10165;42.662;23.260;2023-03-26T01:53:51;93657.22;;;12.50;58.49
20009;BME280;10165;42.662;23.260;2023-03-26T01:56:30;93659.28;;;12.63;58.26
20009;BME280;10165;42.662;23.260;2023-03-26T02:04:56;93649.38;;;11.71;60.28
20009;BME280;10165;42.662;23.260;2023-03-26T02:07:53;93655.13;;;11.99;58.93
20009;BME280;10165;42.662;23.260;2023-03-26T02:10:30;93655.44;;;11.94;59.20
20009;BME280;10165;42.662;23.260;2023-03-26T02:12:59;93665.97;;;12.10;58.79
20009;BME280;10165;42.662;23.260;2023-03-26T02:15:27;93661.66;;;11.72;59.87
20009;BME280;10165;42.662;23.260;2023-03-26T02:17:54;93649.03;;;12.02;59.07
20009;BME280;10165;42.662;23.260;2023-03-26T02:20:21;93647.56;;;12.38;58.02
20009;BME280;10165;42.662;23.260;2023-03-26T02:22:47;93642.25;;;12.12;58.54
20009;BME280;10165;42.662;23.260;2023-03-26T02:25:19;93646.41;;;12.39;57.93
20009;BME280;10165;42.662;23.260;2023-03-26T02:27:47;93643.16;;;12.56;57.13
20009;BME280;10165;42.662;23.260;2023-03-26T02:30:21;93642.97;;;12.75;56.60
20009;BME280;10165;42.662;23.260;2023-03-26T02:32:52;93645.38;;;12.87;55.94
20009;BME280;10165;42.662;23.260;2023-03-26T02:35:20;93661.47;;;12.54;56.16
20009;BME280;10165;42.662;23.260;2023-03-26T02:37:47;93670.72;;;11.15;59.56
20009;BME280;10165;42.662;23.260;2023-03-26T02:40:17;93665.41;;;11.97;58.20
20009;BME280;10165;42.662;23.260;2023-03-26T02:42:46;93671.63;;;11.26;60.63
20009;BME280;10165;42.662;23.260;2023-03-26T02:45:13;93680.56;;;11.11;61.63
20009;BME280;10165;42.662;23.260;2023-03-26T02:47:40;93683.53;;;11.06;61.69
20009;BME280;10165;42.662;23.260;2023-03-26T02:50:07;93688.91;;;11.32;61.27
20009;BME280;10165;42.662;23.260;2023-03-26T02:52:34;93685.84;;;11.56;60.57
20009;BME280;10165;42.662;23.260;2023-03-26T02:55:02;93686.53;;;11.49;60.62
20009;BME280;10165;42.662;23.260;2023-03-26T02:57:29;93694.59;;;11.53;60.28
20009;BME280;10165;42.662;23.260;2023-03-26T02:59:56;93696.47;;;11.26;61.35
20009;BME280;10165;42.662;23.260;2023-03-26T03:02:23;93701.69;;;11.42;60.81
20009;BME280;10165;42.662;23.260;2023-03-26T03:04:51;93700.97;;;11.45;59.88
20009;BME280;10165;42.662;23.260;2023-03-26T03:07:17;93705.88;;;11.43;60.46
20009;BME280;10165;42.662;23.260;2023-03-26T03:09:45;93706.44;;;11.29;60.74
20009;BME280;10165;42.662;23.260;2023-03-26T03:12:12;93708.28;;;11.25;60.69
20009;BME280;10165;42.662;23.260;2023-03-26T03:14:38;93706.91;;;11.35;60.85
20009;BME280;10165;42.662;23.260;2023-03-26T03:17:06;93705.06;;;11.16;61.20
20009;BME280;10165;42.662;23.260;2023-03-26T03:19:33;93718.31;;;10.44;63.63
20009;BME280;10165;42.662;23.260;2023-03-26T03:21:59;93722.31;;;10.96;62.46
20009;BME280;10165;42.662;23.260;2023-03-26T03:24:26;93730.22;;;10.70;62.62
20009;BME280;10165;42.662;23.260;2023-03-26T03:26:53;93732.78;;;10.85;62.73
20009;BME280;10165;42.662;23.260;2023-03-26T03:29:22;93733.28;;;10.91;62.54
20009;BME280;10165;42.662;23.260;2023-03-26T03:31:49;93731.56;;;10.60;63.32
20009;BME280;10165;42.662;23.260;2023-03-26T03:34:16;93728.81;;;10.76;63.29
20009;BME280;10165;42.662;23.260;2023-03-26T03:36:42;93725.13;;;10.23;64.87
20009;BME280;10165;42.662;23.260;2023-03-26T03:39:14;93726.94;;;9.84;66.04
20009;BME280;10165;42.662;23.260;2023-03-26T03:41:41;93712.16;;;10.05;65.98
20009;BME280;10165;42.662;23.260;2023-03-26T03:44:07;93705.47;;;9.96;65.56
20009;BME280;10165;42.662;23.260;2023-03-26T03:46:34;93703.44;;;10.08;65.97
20009;BME280;10165;42.662;23.260;2023-03-26T03:49:02;93708.59;;;10.17;65.70
20009;BME280;10165;42.662;23.260;2023-03-26T03:51:28;93712.75;;;9.80;66.61
20009;BME280;10165;42.662;23.260;2023-03-26T03:53:55;93705.97;;;10.01;66.09
20009;BME280;10165;42.662;23.260;2023-03-26T03:56:22;93704.72;;;9.60;67.40
20009;BME280;10165;42.662;23.260;2023-03-26T03:58:49;93709.28;;;9.60;67.51
20009;BME280;10165;42.662;23.260;2023-03-26T04:01:16;93704.28;;;9.93;66.60
20009;BME280;10165;42.662;23.260;2023-03-26T04:03:44;93697.81;;;9.94;65.60
20009;BME280;10165;42.662;23.260;2023-03-26T04:06:12;93691.75;;;10.32;65.21
20009;BME280;10165;42.662;23.260;2023-03-26T04:08:39;93707.13;;;10.20;64.60
20009;BME280;10165;42.662;23.260;2023-03-26T04:11:05;93710.13;;;9.99;64.86
20009;BME280;10165;42.662;23.260;2023-03-26T04:13:32;93726.50;;;10.17;64.79
20009;BME280;10165;42.662;23.260;2023-03-26T04:15:59;93729.31;;;10.24;65.01
20009;BME280;10165;42.662;23.260;2023-03-26T04:18:26;93740.84;;;10.28;64.68
20009;BME280;10165;42.662;23.260;2023-03-26T04:20:53;93744.28;;;10.28;65.09
20009;BME280;10165;42.662;23.260;2023-03-26T04:23:21;93751.59;;;10.31;64.54
20009;BME280;10165;42.662;23.260;2023-03-26T04:25:52;93752.03;;;10.52;63.76
20009;BME280;10165;42.662;23.260;2023-03-26T04:28:44;93759.69;;;10.35;64.50
20009;BME280;10165;42.662;23.260;2023-03-26T04:31:18;93751.81;;;10.42;64.17
20009;BME280;10165;42.662;23.260;2023-03-26T04:33:50;93759.06;;;10.61;63.97
20009;BME280;10165;42.662;23.260;2023-03-26T04:36:25;93773.78;;;10.00;64.98
20009;BME280;10165;42.662;23.260;2023-03-26T04:38:53;93783.84;;;9.72;66.96
20009;BME280;10165;42.662;23.260;2023-03-26T04:41:20;93792.59;;;9.73;66.91
20009;BME280;10165;42.662;23.260;2023-03-26T04:43:54;93793.56;;;10.31;65.06
20009;BME280;10165;42.662;23.260;2023-03-26T04:46:25;93806.72;;;9.73;66.86
20009;BME280;10165;42.662;23.260;2023-03-26T04:48:53;93795.31;;;10.07;65.42
20009;BME280;10165;42.662;23.260;2023-03-26T04:51:24;93802.31;;;10.50;63.68
20009;BME280;10165;42.662;23.260;2023-03-26T04:53:58;93816.25;;;9.74;65.83
20009;BME280;10165;42.662;23.260;2023-03-26T04:59:03;93808.44;;;10.51;63.86
20009;BME280;10165;42.662;23.260;2023-03-26T05:01:30;93811.50;;;10.15;62.95
20009;BME280;10165;42.662;23.260;2023-03-26T05:03:58;93810.94;;;10.25;62.36
20009;BME280;10165;42.662;23.260;2023-03-26T05:06:26;93813.31;;;10.45;61.93
20009;BME280;10165;42.662;23.260;2023-03-26T05:08:54;93803.41;;;10.65;61.14
20009;BME280;10165;42.662;23.260;2023-03-26T05:11:20;93816.00;;;11.26;59.16
20009;BME280;10165;42.662;23.260;2023-03-26T05:13:47;93815.44;;;11.17;58.71
20009;BME280;10165;42.662;23.260;2023-03-26T05:16:14;93826.09;;;10.55;59.93
20009;BME280;10165;42.662;23.260;2023-03-26T05:18:41;93813.91;;;10.96;59.58
20009;BME280;10165;42.662;23.260;2023-03-26T05:21:08;93812.16;;;11.04;58.47
20009;BME280;10165;42.662;23.260;2023-03-26T05:23:36;93822.47;;;11.25;58.00
20009;BME280;10165;42.662;23.260;2023-03-26T05:26:02;93821.53;;;10.94;58.10
20009;BME280;10165;42.662;23.260;2023-03-26T05:28:29;93832.00;;;10.84;58.54
20009;BME280;10165;42.662;23.260;2023-03-26T05:30:56;93823.94;;;10.80;59.58
20009;BME280;10165;42.662;23.260;2023-03-26T05:33:23;93821.47;;;10.91;58.73
20009;BME280;10165;42.662;23.260;2023-03-26T05:36:03;93827.16;;;10.70;59.15
20009;BME280;10165;42.662;23.260;2023-03-26T05:38:30;93825.13;;;10.83;59.54
20009;BME280;10165;42.662;23.260;2023-03-26T05:40:59;93828.13;;;11.00;59.04
20009;BME280;10165;42.662;23.260;2023-03-26T05:43:27;93831.91;;;11.19;58.78
20009;BME280;10165;42.662;23.260;2023-03-26T05:45:55;93832.56;;;11.35;58.66
20009;BME280;10165;42.662;23.260;2023-03-26T05:48:23;93832.53;;;11.54;58.28
20009;BME280;10165;42.662;23.260;2023-03-26T05:50:52;93837.47;;;11.10;59.17
20009;BME280;10165;42.662;23.260;2023-03-26T05:53:20;93835.56;;;11.30;58.81
20009;BME280;10165;42.662;23.260;2023-03-26T05:55:48;93835.22;;;10.93;59.38
20009;BME280;10165;42.662;23.260;2023-03-26T05:58:15;93835.09;;;11.05;59.17
20009;BME280;10165;42.662;23.260;2023-03-26T06:00:42;93835.81;;;11.67;58.05
20009;BME280;10165;42.662;23.260;2023-03-26T06:03:14;93827.00;;;11.89;57.20
20009;BME280;10165;42.662;23.260;2023-03-26T06:05:42;93829.97;;;11.80;56.85
20009;BME280;10165;42.662;23.260;2023-03-26T06:08:08;93834.47;;;11.76;56.54
20009;BME280;10165;42.662;23.260;2023-03-26T06:10:38;93839.63;;;11.88;56.26
20009;BME280;10165;42.662;23.260;2023-03-26T06:13:05;93831.88;;;12.06;55.54
20009;BME280;10165;42.662;23.260;2023-03-26T06:15:32;93823.03;;;11.57;57.23
20009;BME280;10165;42.662;23.260;2023-03-26T06:18:00;93833.19;;;11.70;56.56
20009;BME280;10165;42.662;23.260;2023-03-26T06:20:27;93819.16;;;11.54;56.35
20009;BME280;10165;42.662;23.260;2023-03-26T06:22:54;93819.41;;;11.45;56.93
20009;BME280;10165;42.662;23.260;2023-03-26T06:25:21;93833.47;;;10.81;57.76
20009;BME280;10165;42.662;23.260;2023-03-26T06:27:47;93827.53;;;11.30;56.46
20009;BME280;10165;42.662;23.260;2023-03-26T06:30:14;93825.56;;;11.27;56.68
20009;BME280;10165;42.662;23.260;2023-03-26T06:32:41;93821.66;;;11.01;56.87
20009;BME280;10165;42.662;23.260;2023-03-26T06:35:08;93811.44;;;11.49;56.58
20009;BME280;10165;42.662;23.260;2023-03-26T06:37:36;93804.09;;;11.88;56.33
20009;BME280;10165;42.662;23.260;2023-03-26T06:40:03;93806.28;;;11.60;55.20
20009;BME280;10165;42.662;23.260;2023-03-26T06:42:30;93810.09;;;12.08;54.15
20009;BME280;10165;42.662;23.260;2023-03-26T06:45:17;93810.84;;;11.82;53.55
20009;BME280;10165;42.662;23.260;2023-03-26T06:47:44;93818.50;;;11.38;53.96
20009;BME280;10165;42.662;23.260;2023-03-26T06:50:11;93815.31;;;11.51;54.20
20009;BME280;10165;42.662;23.260;2023-03-26T06:52:37;93837.41;;;11.26;54.36
20009;BME280;10165;42.662;23.260;2023-03-26T06:55:04;93813.56;;;11.63;54.37
20009;BME280;10165;42.662;23.260;2023-03-26T06:57:33;93828.13;;;11.65;54.24
20009;BME280;10165;42.662;23.260;2023-03-26T07:00:00;93830.00;;;11.61;54.77
20009;BME280;10165;42.662;23.260;2023-03-26T07:02:27;93840.88;;;11.49;54.28
20009;BME280;10165;42.662;23.260;2023-03-26T07:04:54;93831.84;;;11.80;54.36
20009;BME280;10165;42.662;23.260;2023-03-26T07:07:20;93839.88;;;12.29;52.82
20009;BME280;10165;42.662;23.260;2023-03-26T07:09:50;93851.22;;;11.73;52.06
20009;BME280;10165;42.662;23.260;2023-03-26T07:12:17;93842.06;;;11.10;54.58
20009;BME280;10165;42.662;23.260;2023-03-26T07:14:43;93843.66;;;11.56;54.06
20009;BME280;10165;42.662;23.260;2023-03-26T07:17:10;93836.06;;;11.16;54.99
20009;BME280;10165;42.662;23.260;2023-03-26T07:19:37;93828.41;;;11.79;53.63
20009;BME280;10165;42.662;23.260;2023-03-26T07:22:04;93830.22;;;11.98;52.17
20009;BME280;10165;42.662;23.260;2023-03-26T07:24:31;93830.47;;;11.89;52.60
20009;BME280;10165;42.662;23.260;2023-03-26T07:33:01;93823.41;;;12.04;51.78
20009;BME280;10165;42.662;23.260;2023-03-26T07:41:39;93814.19;;;13.14;49.22
20009;BME280;10165;42.662;23.260;2023-03-26T07:47:32;93809.47;;;12.74;47.20
20009;BME280;10165;42.662;23.260;2023-03-26T07:50:00;93815.41;;;12.90;46.62
20009;BME280;10165;42.662;23.260;2023-03-26T07:52:27;93817.16;;;13.09;46.00
20009;BME280;10165;42.662;23.260;2023-03-26T07:54:55;93814.00;;;12.40;45.97
20009;BME280;10165;42.662;23.260;2023-03-26T08:00:55;93804.19;;;12.81;43.79
20009;BME280;10165;42.662;23.260;2023-03-26T08:03:44;93808.41;;;12.82;44.13
20009;BME280;10165;42.662;23.260;2023-03-26T08:06:37;93798.34;;;12.72;44.25
20009;BME280;10165;42.662;23.260;2023-03-26T08:14:48;93796.00;;;12.37;45.04
20009;BME280;10165;42.662;23.260;2023-03-26T08:17:40;93804.56;;;12.79;45.18
20009;BME280;10165;42.662;23.260;2023-03-26T08:23:34;93806.00;;;13.40;44.06
20009;BME280;10165;42.662;23.260;2023-03-26T08:26:30;93804.88;;;13.41;43.37
20009;BME280;10165;42.662;23.260;2023-03-26T08:31:38;93806.69;;;13.74;42.47
20009;BME280;10165;42.662;23.260;2023-03-26T08:34:09;93806.13;;;13.98;40.06
20009;BME280;10165;42.662;23.260;2023-03-26T08:36:37;93808.91;;;13.24;42.08
20009;BME280;10165;42.662;23.260;2023-03-26T08:39:04;93815.78;;;13.22;42.15
20009;BME280;10165;42.662;23.260;2023-03-26T08:55:44;93821.38;;;13.43;43.08
20009;BME280;10165;42.662;23.260;2023-03-26T09:01:27;93819.25;;;13.63;42.53
20009;BME280;10165;42.662;23.260;2023-03-26T09:04:22;93813.41;;;13.54;43.13
20009;BME280;10165;42.662;23.260;2023-03-26T09:25:35;93815.75;;;13.59;40.49
20009;BME280;10165;42.662;23.260;2023-03-26T09:39:15;93806.88;;;13.95;41.10
20009;BME280;10165;42.662;23.260;2023-03-26T09:42:13;93807.72;;;14.64;38.59
20009;BME280;10165;42.662;23.260;2023-03-26T09:52:55;93791.19;;;14.59;37.68
20009;BME280;10165;42.662;23.260;2023-03-26T09:58:25;93791.88;;;13.91;38.96
20009;BME280;10165;42.662;23.260;2023-03-26T10:01:32;93788.47;;;13.53;39.43
20009;BME280;10165;42.662;23.260;2023-03-26T10:04:13;93775.38;;;14.47;38.55
20009;BME280;10165;42.662;23.260;2023-03-26T10:15:03;93759.81;;;14.15;36.66
20009;BME280;10165;42.662;23.260;2023-03-26T10:18:11;93759.72;;;14.01;37.19
20009;BME280;10165;42.662;23.260;2023-03-26T10:24:18;93746.16;;;14.42;34.43
20009;BME280;10165;42.662;23.260;2023-03-26T10:45:10;93705.31;;;15.29;30.39
20009;BME280;10165;42.662;23.260;2023-03-26T10:51:07;93701.88;;;15.36;30.56
20009;BME280;10165;42.662;23.260;2023-03-26T10:53:57;93712.59;;;15.01;30.97
20009;BME280;10165;42.662;23.260;2023-03-26T10:58:54;93700.69;;;15.12;29.10
20009;BME280;10165;42.662;23.260;2023-03-26T11:07:12;93713.91;;;14.42;28.86
20009;BME280;10165;42.662;23.260;2023-03-26T11:10:01;93702.44;;;14.48;29.22
20009;BME280;10165;42.662;23.260;2023-03-26T11:31:12;93666.88;;;15.47;29.04
20009;BME280;10165;42.662;23.260;2023-03-26T11:33:47;93663.34;;;16.06;29.82
20009;BME280;10165;42.662;23.260;2023-03-26T11:36:21;93660.34;;;15.76;29.31
20009;BME280;10165;42.662;23.260;2023-03-26T11:38:51;93656.88;;;15.75;30.13
20009;BME280;10165;42.662;23.260;2023-03-26T11:41:21;93649.56;;;15.79;29.33
20009;BME280;10165;42.662;23.260;2023-03-26T11:44:00;93648.84;;;15.61;29.50
20009;BME280;10165;42.662;23.260;2023-03-26T11:46:29;93634.22;;;15.69;29.19
20009;BME280;10165;42.662;23.260;2023-03-26T11:49:02;93615.63;;;16.07;28.82
20009;BME280;10165;42.662;23.260;2023-03-26T11:51:35;93624.78;;;16.34;28.74
20009;BME280;10165;42.662;23.260;2023-03-26T11:54:06;93610.34;;;15.71;30.49
20009;BME280;10165;42.662;23.260;2023-03-26T11:56:49;93611.88;;;15.76;30.96
20009;BME280;10165;42.662;23.260;2023-03-26T11:59:39;93608.06;;;14.96;30.52
20009;BME280;10165;42.662;23.260;2023-03-26T12:02:28;93598.84;;;15.67;30.34
20009;BME280;10165;42.662;23.260;2023-03-26T12:05:20;93595.75;;;15.48;29.80
20009;BME280;10165;42.662;23.260;2023-03-26T12:07:56;93591.06;;;15.94;28.81
20009;BME280;10165;42.662;23.260;2023-03-26T12:10:35;93592.25;;;15.83;29.30
20009;BME280;10165;42.662;23.260;2023-03-26T12:13:28;93595.00;;;15.54;29.42
20009;BME280;10165;42.662;23.260;2023-03-26T12:16:05;93588.03;;;15.78;29.40
20009;BME280;10165;42.662;23.260;2023-03-26T12:18:32;93574.00;;;16.22;29.88
20009;BME280;10165;42.662;23.260;2023-03-26T12:24:02;93569.19;;;16.65;28.25
20009;BME280;10165;42.662;23.260;2023-03-26T12:29:09;93545.59;;;16.07;27.48
20009;BME280;10165;42.662;23.260;2023-03-26T12:34:17;93549.22;;;16.52;26.26
20009;BME280;10165;42.662;23.260;2023-03-26T12:36:50;93538.97;;;16.88;26.15
20009;BME280;10165;42.662;23.260;2023-03-26T12:39:34;93539.16;;;17.11;25.66
20009;BME280;10165;42.662;23.260;2023-03-26T12:42:28;93527.44;;;17.28;25.64
20009;BME280;10165;42.662;23.260;2023-03-26T12:45:15;93527.13;;;17.56;24.26
20009;BME280;10165;42.662;23.260;2023-03-26T12:47:41;93536.25;;;17.36;24.42
20009;BME280;10165;42.662;23.260;2023-03-26T12:50:35;93535.78;;;17.00;24.40
20009;BME280;10165;42.662;23.260;2023-03-26T12:56:00;93533.19;;;16.27;26.31
20009;BME280;10165;42.662;23.260;2023-03-26T12:58:43;93523.06;;;16.45;27.26
20009;BME280;10165;42.662;23.260;2023-03-26T13:01:53;93534.00;;;16.20;26.16
20009;BME280;10165;42.662;23.260;2023-03-26T13:04:36;93528.88;;;16.95;26.47
20009;BME280;10165;42.662;23.260;2023-03-26T13:12:44;93529.06;;;16.74;23.06
20009;BME280;10165;42.662;23.260;2023-03-26T13:15:36;93508.25;;;16.09;22.20
20009;BME280;10165;42.662;23.260;2023-03-26T13:31:53;93520.69;;;17.06;22.48
20009;BME280;10165;42.662;23.260;2023-03-26T13:40:14;93510.94;;;17.19;23.42
20009;BME280;10165;42.662;23.260;2023-03-26T13:45:29;93501.50;;;16.97;23.20
20009;BME280;10165;42.662;23.260;2023-03-26T13:48:00;93511.41;;;16.62;23.23
20009;BME280;10165;42.662;23.260;2023-03-26T13:50:32;93508.06;;;16.44;23.10
20009;BME280;10165;42.662;23.260;2023-03-26T13:53:13;93498.03;;;15.79;23.02
20009;BME280;10165;42.662;23.260;2023-03-26T13:55:50;93506.94;;;16.35;23.30
20009;BME280;10165;42.662;23.260;2023-03-26T13:58:43;93494.97;;;16.43;22.72
20009;BME280;10165;42.662;23.260;2023-03-26T14:01:26;93488.19;;;16.17;22.80
20009;BME280;10165;42.662;23.260;2023-03-26T14:04:17;93497.63;;;16.46;22.97
20009;BME280;10165;42.662;23.260;2023-03-26T14:09:41;93498.78;;;17.00;23.31
20009;BME280;10165;42.662;23.260;2023-03-26T14:17:40;93482.41;;;16.77;24.00
20009;BME280;10165;42.662;23.260;2023-03-26T14:23:10;93478.97;;;17.55;23.46
20009;BME280;10165;42.662;23.260;2023-03-26T14:46:09;93473.56;;;16.77;26.18
20009;BME280;10165;42.662;23.260;2023-03-26T14:54:13;93466.94;;;17.22;26.07
20009;BME280;10165;42.662;23.260;2023-03-26T15:05:16;93472.31;;;17.26;26.89
20009;BME280;10165;42.662;23.260;2023-03-26T15:47:30;93476.84;;;15.77;27.81
20009;BME280;10165;42.662;23.260;2023-03-26T15:53:03;93472.53;;;16.56;27.27
20009;BME280;10165;42.662;23.260;2023-03-26T15:56:13;93466.34;;;17.07;26.67
20009;BME280;10165;42.662;23.260;2023-03-26T16:06:59;93464.16;;;16.92;27.26
20009;BME280;10165;42.662;23.260;2023-03-26T16:20:22;93480.25;;;17.02;27.21
20009;BME280;10165;42.662;23.260;2023-03-26T16:22:58;93488.19;;;16.76;27.63
20009;BME280;10165;42.662;23.260;2023-03-26T16:25:52;93479.91;;;17.00;27.72
20009;BME280;10165;42.662;23.260;2023-03-26T16:36:34;93486.41;;;17.03;27.03
20009;BME280;10165;42.662;23.260;2023-03-26T16:47:28;93489.78;;;16.69;29.03
20009;BME280;10165;42.662;23.260;2023-03-26T16:50:31;93495.28;;;16.55;29.57
20009;BME280;10165;42.662;23.260;2023-03-26T16:53:20;93492.19;;;16.53;29.99
20009;BME280;10165;42.662;23.260;2023-03-26T17:02:22;93484.31;;;16.18;30.79
20009;BME280;10165;42.662;23.260;2023-03-26T17:04:56;93492.38;;;16.29;31.01
20009;BME280;10165;42.662;23.260;2023-03-26T17:07:42;93483.19;;;16.15;31.33
20009;BME280;10165;42.662;23.260;2023-03-26T17:10:21;93498.16;;;16.23;31.27
20009;BME280;10165;42.662;23.260;2023-03-26T17:16:20;93488.69;;;15.98;31.59
20009;BME280;10165;42.662;23.260;2023-03-26T17:18:56;93488.31;;;15.96;31.37
20009;BME280;10165;42.662;23.260;2023-03-26T17:24:49;93500.25;;;15.98;31.38
20009;BME280;10165;42.662;23.260;2023-03-26T17:30:53;93509.56;;;15.76;31.83
20009;BME280;10165;42.662;23.260;2023-03-26T17:41:12;93496.47;;;15.82;31.48
20009;BME280;10165;42.662;23.260;2023-03-26T17:43:47;93491.03;;;15.89;31.48
20009;BME280;10165;42.662;23.260;2023-03-26T17:46:35;93490.72;;;15.69;31.77
20009;BME280;10165;42.662;23.260;2023-03-26T17:49:15;93489.94;;;15.75;32.01
20009;BME280;10165;42.662;23.260;2023-03-26T17:54:54;93481.13;;;15.64;32.20
20009;BME280;10165;42.662;23.260;2023-03-26T17:57:38;93480.03;;;15.44;32.61
20009;BME280;10165;42.662;23.260;2023-03-26T18:00:24;93484.66;;;15.54;32.34
20009;BME280;10165;42.662;23.260;2023-03-26T18:02:56;93475.03;;;15.53;32.31
20009;BME280;10165;42.662;23.260;2023-03-26T18:05:27;93474.28;;;15.49;32.35
20009;BME280;10165;42.662;23.260;2023-03-26T18:16:58;93479.25;;;15.47;31.94
20009;BME280;10165;42.662;23.260;2023-03-26T18:19:26;93478.91;;;15.52;32.07
20009;BME280;10165;42.662;23.260;2023-03-26T18:21:58;93474.25;;;15.56;32.62
20009;BME280;10165;42.662;23.260;2023-03-26T18:24:45;93472.34;;;15.50;32.76
20009;BME280;10165;42.662;23.260;2023-03-26T18:27:20;93471.97;;;15.33;32.91
20009;BME280;10165;42.662;23.260;2023-03-26T18:29:58;93473.94;;;15.33;33.20
20009;BME280;10165;42.662;23.260;2023-03-26T18:32:30;93470.47;;;15.32;32.87
20009;BME280;10165;42.662;23.260;2023-03-26T18:35:10;93463.94;;;15.30;32.67
20009;BME280;10165;42.662;23.260;2023-03-26T18:37:38;93452.81;;;15.24;33.25
20009;BME280;10165;42.662;23.260;2023-03-26T18:40:18;93460.13;;;15.17;32.98
20009;BME280;10165;42.662;23.260;2023-03-26T18:42:51;93456.66;;;15.20;33.13
20009;BME280;10165;42.662;23.260;2023-03-26T18:45:31;93456.31;;;15.07;32.59
20009;BME280;10165;42.662;23.260;2023-03-26T18:48:09;93449.81;;;14.98;32.55
20009;BME280;10165;42.662;23.260;2023-03-26T18:50:42;93453.25;;;15.05;32.25
20009;BME280;10165;42.662;23.260;2023-03-26T18:53:21;93442.84;;;15.07;31.73
20009;BME280;10165;42.662;23.260;2023-03-26T18:55:50;93439.41;;;15.14;31.54
20009;BME280;10165;42.662;23.260;2023-03-26T19:00:56;93439.38;;;15.10;32.08
20009;BME280;10165;42.662;23.260;2023-03-26T19:03:24;93431.72;;;15.09;32.04
20009;BME280;10165;42.662;23.260;2023-03-26T19:05:55;93428.63;;;15.07;31.41
20009;BME280;10165;42.662;23.260;2023-03-26T19:08:23;93420.59;;;15.00;31.15
20009;BME280;10165;42.662;23.260;2023-03-26T19:10:51;93414.06;;;14.97;30.91
20009;BME280;10165;42.662;23.260;2023-03-26T19:13:20;93411.75;;;15.03;30.38
20009;BME280;10165;42.662;23.260;2023-03-26T19:15:51;93406.03;;;14.90;30.73
20009;BME280;10165;42.662;23.260;2023-03-26T19:18:22;93413.31;;;14.90;30.59
20009;BME280;10165;42.662;23.260;2023-03-26T19:20:58;93404.13;;;14.87;30.89
20009;BME280;10165;42.662;23.260;2023-03-26T19:23:32;93402.94;;;14.88;31.40
20009;BME280;10165;42.662;23.260;2023-03-26T19:26:03;93404.88;;;14.80;31.49
20009;BME280;10165;42.662;23.260;2023-03-26T19:28:33;93398.41;;;14.67;31.69
20009;BME280;10165;42.662;23.260;2023-03-26T19:33:36;93399.13;;;14.78;31.70